• Join FlightAware (Why Join?)
  • Login
  • US Flag 
05:45PM EDT


 

Airport Tracker/Info


-or-


 

Live Flight TrackerFlight Track Log ✈ TMC875 ✈ 18-Apr-2013 ✈ KBOS - KTEB

Flight Track Log - Related Links

Times and Time Zones

All times are in EDT time to prevent confusion due to time zone crossing. See the TMC875 flight status page for this flight to view local times or setup timezone preferences in your user account.

Time Position Orientation Groundspeed Altitude Reporting Facility
EDT Latitude Longitude Course Direction KTS MPH feet Rate Location/Type
05:31PM 42.3500 -71.0167 144° Southeast 195 224 800  Level KA90
05:31PM 42.3167 -70.9833 144° Southeast 246 283 4,000 2,280 Climbing KA90
05:32PM 42.3167 -70.8833 90° East 288 331 5,000 1,740 Climbing KA90
05:33PM 42.3333 -70.7833 77° East 297 342 7,500 2,700 Climbing KA90
05:34PM 42.3106 -70.7472 130° Southeast 299 344 8,700 3,720 Climbing Boston Center
05:35PM 42.2394 -70.7294 170° South 275 316 12,500 3,480 Climbing Boston Center
05:36PM 42.1883 -70.7925 222° Southwest 214 246 15,700 1,680 Climbing Boston Center
05:37PM 42.1836 -70.9019 267° West 225 259 16,000 120 Climbing Boston Center
05:38PM 42.1833 -71.0336 270° West 325 374 16,000  Level Boston Center
05:39PM 42.1847 -71.1511 271° West 346 398 16,000  Level Boston Center
05:40PM 42.1819 -71.2886 268° West 346 398 16,000  Level Boston Center
05:41PM 42.1811 -71.4006 269° West 346 398 16,000  Level Boston Center
05:42PM 42.1800 -71.5353 269° West 341 392 16,000  Level Boston Center
05:43PM 42.1808 -71.6556 271° West 334 384 16,000  Level Boston Center
05:44PM 42.1794 -71.7678 269° West 334 384 16,000  Level Boston Center
05:45PM 42.1742 -71.9303 268° West 327 376 16,000  Level Boston Center
05:46PM 42.1725 -72.0422 269° West 337 388 16,000  Level Boston Center
05:47PM 42.1708 -72.1767 269° West 331 381 16,000  Level Boston Center
05:48PM 42.1689 -72.2889 269° West 331 381 16,000  Level Boston Center
05:49PM 42.1669 -72.4261 269° West 326 375 16,000  Level Boston Center
05:50PM 42.1650 -72.5353 269° West 332 382 16,000  Level Boston Center
05:51PM 42.1625 -72.6697 269° West 325 374 16,000  Level Boston Center
05:52PM 42.1561 -72.7931 266° West 325 374 16,000  Level Boston Center
05:53PM 42.1494 -72.9050 265° West 330 380 16,000  Level Boston Center
05:54PM 42.1403 -73.0364 265° West 330 380 16,000  Level Boston Center
05:55PM 42.1336 -73.1483 265° West 335 386 16,000  Level Boston Center
05:56PM 42.1242 -73.2856 265° West 335 386 16,000 -540 Level Boston Center
05:57PM 42.1150 -73.3972 264° West 335 386 15,000 -1,080 Descending Boston Center
05:58PM 42.1078 -73.5175 265° West 335 386 13,900 -600 Descending Boston Center
05:59PM 42.0981 -73.6375 264° West 329 379 13,900  Level Boston Center
06:00PM 42.0883 -73.7633 264° West 321 369 13,900  Level Boston Center
06:01PM 42.0808 -73.8694 265° West 316 364 13,900  Level Boston Center
06:02PM 42.0708 -73.9950 264° West 310 357 13,900 -180 Level Boston Center
06:03PM 42.0606 -74.1347 264° West 310 357 13,600 -600 Descending Boston Center
06:04PM 42.0528 -74.2322 264° West 310 357 12,600 -1,200 Descending Boston Center
06:05PM 42.0156 -74.3431 246° West 303 349 11,300 -1,320 Descending Boston Center
06:06PM 41.9542 -74.3886 209° Southwest 279 321 10,000 -1,320 Descending Boston Center
06:07PM 41.8867 -74.4367 208° Southwest 268 308 8,700 -1,260 Descending Boston Center
06:08PM 41.8319 -74.4769 209° Southwest 258 297 7,500 -900 Descending Boston Center
06:09PM 41.7664 -74.5219 207° Southwest 246 283 7,000 -300 Descending Boston Center
06:10PM 41.7078 -74.5342 189° South 241 277 7,000  Level Boston Center
06:11PM 41.6347 -74.5483 188° South 241 277 7,000 -300 Level Boston Center
06:12PM 41.5761 -74.5603 189° South 241 277 6,500 -540 Descending Boston Center
06:13PM 41.5028 -74.5744 188° South 241 277 6,000 -300 Descending Boston Center
06:14PM 41.4464 -74.5836 187° South 241 277 6,000  Level Boston Center
06:16PM 41.3167 -74.6000 185° South 246 283 6,100 -120 Climbing New York TRACON
06:17PM 41.2667 -74.5167 129° Southeast 269 310 5,800 -660 Descending New York TRACON
06:18PM 41.2333 -74.4333 118° Southeast 262 302 4,800 -1,140 Descending New York TRACON
06:19PM 41.1833 -74.3500 129° Southeast 267 307 3,600 -900 Descending New York TRACON
06:20PM 41.1500 -74.2833 124° Southeast 238 274 3,000 -300 Descending New York TRACON
06:21PM 41.1167 -74.2167 124° Southeast 199 229 3,000  Level New York TRACON
06:22PM 41.1000 -74.1667 114° Southeast 170 196 3,000 -120 Level New York TRACON
06:23PM 41.0833 -74.1167 114° Southeast 181 208 2,800 -480 Descending New York TRACON
06:24PM 41.0500 -74.0667 131° Southeast 156 180 2,000 -420 Descending New York TRACON
06:25PM 41.0000 -74.0500 166° South 163 188 2,000  Level New York TRACON